Alief, Texas
Current Conditions -  °F | °C
As of 2:32 AM on Thursday 29 Jan 2015 (Local Time) from KSGR Reporting Station
Haze Haze  
Wind Chill: 54°   Ceiling: 400
Heat Index: 54°   Visibility: 0.75mi
Dew Point: 52°   Wind: 0mph
Humidity: 93%   Direction: NA
Pressure: 30.16"   Gusts: NA
Location:  29.71°N, 95.6°W
Report Text: KSGR 290832Z AUTO 00000KT 3/4SM BR VV004 12/11 A3016 RMK AO2 T01220111
Loading
Personal Weather Stations






























Interactive Weather Map New forecast layout! Learn more

10-Day Weather Forecast

Advertisements
Track Severe Weather on mobile